Time;durP1;ratioP1;P1;durP2;ratioP2;P2;SDS_P1;SDS_P2;PMS_P1;PMS_P2;Temp;Humidity;BMP_temperature;BMP_pressure;BME280_temperature;BME280_humidity;BME280_pressure;Samples;Min_cycle;Max_cycle;Signal;HPM_P1;HPM_P2
2024/04/06 00:00:35;;;;;;;8.85;8.00;;;13.90;99.90;;;;;;12567026;28;20404;-35
2024/04/06 00:06:36;;;;;;;9.80;8.07;;;13.90;99.90;;;;;;12606582;28;20055;-35
2024/04/06 00:12:37;;;;;;;8.70;8.00;;;13.90;99.90;;;;;;12580157;28;20504;-34
2024/04/06 00:18:39;;;;;;;8.93;8.23;;;13.90;99.90;;;;;;12590185;28;20054;-34
2024/04/06 00:24:40;;;;;;;8.55;7.80;;;13.90;99.90;;;;;;12534427;28;20084;-34
2024/04/06 00:30:41;;;;;;;8.55;7.93;;;13.80;99.90;;;;;;12561900;28;20055;-34
2024/04/06 00:36:42;;;;;;;8.80;8.00;;;13.90;99.90;;;;;;12600421;28;21579;-34
2024/04/06 00:42:44;;;;;;;8.82;8.02;;;13.80;99.90;;;;;;12602576;28;20060;-34
2024/04/06 00:48:47;;;;;;;8.75;7.85;;;13.80;99.90;;;;;;12620078;28;20047;-34
2024/04/06 00:54:48;;;;;;;8.25;7.45;;;13.80;99.90;;;;;;12591340;28;20063;-34
2024/04/06 01:00:49;;;;;;;7.90;7.18;;;13.70;99.90;;;;;;12611890;28;20458;-34
2024/04/06 01:06:50;;;;;;;8.52;7.72;;;13.80;99.90;;;;;;12608707;28;20039;-34
2024/04/06 01:12:51;;;;;;;8.80;7.90;;;13.70;99.90;;;;;;12620814;28;20052;-35
2024/04/06 01:18:52;;;;;;;8.05;7.45;;;13.70;99.90;;;;;;12622553;28;20136;-34
2024/04/06 01:24:53;;;;;;;8.27;7.55;;;13.70;99.90;;;;;;12621175;28;20058;-34
2024/04/06 01:30:53;;;;;;;9.20;8.50;;;13.70;99.90;;;;;;12585523;28;20541;-34
2024/04/06 01:36:55;;;;;;;8.35;7.43;;;13.60;99.90;;;;;;12579978;28;20032;-34
2024/04/06 01:42:56;;;;;;;5.75;5.05;;;13.60;99.90;;;;;;12604086;28;20476;-34
2024/04/06 01:48:58;;;;;;;9.25;5.28;;;13.60;99.90;;;;;;12604113;28;20411;-34
2024/04/06 01:55:01;;;;;;;5.90;5.40;;;13.50;99.90;;;;;;12615463;28;20125;-34
2024/04/06 02:01:02;;;;;;;8.57;5.13;;;13.70;99.90;;;;;;12593810;28;20048;-35
2024/04/06 02:07:04;;;;;;;5.45;4.95;;;13.70;99.90;;;;;;12605752;28;20408;-34
2024/04/06 02:13:05;;;;;;;5.22;4.78;;;13.60;99.90;;;;;;12615981;28;20105;-34
2024/04/06 02:19:06;;;;;;;5.93;5.18;;;13.50;99.90;;;;;;12596799;28;20112;-34
2024/04/06 02:25:07;;;;;;;4.75;4.35;;;13.50;99.90;;;;;;12606792;28;20040;-35
2024/04/06 02:31:10;;;;;;;5.88;4.43;;;13.40;99.90;;;;;;12578066;28;20492;-35
2024/04/06 02:37:10;;;;;;;4.90;4.40;;;13.40;99.90;;;;;;12624325;28;20052;-34
2024/04/06 02:43:11;;;;;;;6.32;4.63;;;13.30;99.90;;;;;;12621297;28;20461;-34
2024/04/06 02:49:12;;;;;;;9.52;5.22;;;13.30;99.90;;;;;;12618814;28;20452;-34
2024/04/06 02:55:13;;;;;;;9.85;4.47;;;13.20;99.90;;;;;;12617108;28;20068;-35
2024/04/06 03:01:14;;;;;;;7.55;4.65;;;13.10;99.90;;;;;;12616778;28;20101;-34
2024/04/06 03:07:15;;;;;;;5.57;4.10;;;13.00;99.90;;;;;;12612074;28;20102;-34
2024/04/06 03:13:16;;;;;;;5.55;4.50;;;13.00;99.90;;;;;;12612106;28;20052;-34
2024/04/06 03:19:16;;;;;;;4.93;4.53;;;13.00;99.90;;;;;;12630150;28;20108;-34
2024/04/06 03:25:17;;;;;;;4.80;4.38;;;13.00;99.90;;;;;;12622641;28;20123;-34
2024/04/06 03:31:18;;;;;;;4.57;3.92;;;13.00;99.90;;;;;;12575460;28;20070;-34
2024/04/06 03:37:20;;;;;;;4.65;4.20;;;13.10;99.90;;;;;;12597479;28;20071;-35
2024/04/06 03:43:21;;;;;;;4.45;4.05;;;13.00;99.90;;;;;;12605480;28;20055;-34
2024/04/06 03:49:22;;;;;;;7.50;4.50;;;13.00;99.90;;;;;;12603129;28;20078;-34
2024/04/06 03:55:23;;;;;;;4.55;4.10;;;13.00;99.90;;;;;;12603274;28;20493;-35
2024/04/06 04:01:23;;;;;;;4.80;4.28;;;13.10;99.90;;;;;;12583725;28;20056;-35
2024/04/06 04:07:24;;;;;;;5.55;4.90;;;13.10;99.90;;;;;;12581326;28;20531;-34
2024/04/06 04:13:25;;;;;;;6.82;4.60;;;13.20;99.90;;;;;;12592366;28;20040;-35
2024/04/06 04:19:26;;;;;;;4.78;4.38;;;13.20;99.90;;;;;;12600662;28;20045;-35
2024/04/06 04:25:28;;;;;;;4.50;4.10;;;13.20;99.90;;;;;;12585922;28;20093;-35
2024/04/06 04:31:29;;;;;;;4.53;4.13;;;13.20;99.90;;;;;;12582033;28;20121;-34
2024/04/06 04:37:30;;;;;;;5.10;4.63;;;13.20;99.90;;;;;;12600209;28;20051;-35
2024/04/06 04:43:31;;;;;;;7.10;4.32;;;13.20;99.90;;;;;;12607090;28;20048;-34
2024/04/06 04:49:33;;;;;;;5.38;4.20;;;13.10;99.90;;;;;;12618718;28;20051;-35
2024/04/06 04:55:34;;;;;;;4.55;4.10;;;13.20;99.90;;;;;;12600455;28;20052;-34
2024/04/06 05:01:35;;;;;;;5.10;4.00;;;13.20;99.90;;;;;;12602146;28;20063;-35
2024/04/06 05:07:36;;;;;;;6.80;4.88;;;13.20;99.90;;;;;;12631433;28;20538;-34
2024/04/06 05:13:37;;;;;;;5.65;5.20;;;13.20;99.90;;;;;;12619818;28;20060;-35
2024/04/06 05:19:38;;;;;;;5.20;4.70;;;13.20;99.90;;;;;;12588064;28;20056;-34
2024/04/06 05:25:38;;;;;;;5.68;4.60;;;13.20;99.90;;;;;;12611125;28;20045;-34
2024/04/06 05:31:39;;;;;;;5.70;4.35;;;13.10;99.90;;;;;;12555530;28;20086;-34
2024/04/06 05:37:41;;;;;;;6.05;5.55;;;13.20;99.90;;;;;;12592349;28;20052;-34
2024/04/06 05:43:41;;;;;;;7.32;5.70;;;13.40;99.90;;;;;;12585476;28;20543;-34
2024/04/06 05:49:43;;;;;;;5.88;5.38;;;13.60;99.90;;;;;;12614600;28;20125;-35
2024/04/06 05:55:44;;;;;;;7.05;6.35;;;13.70;99.90;;;;;;12605351;28;20742;-34
2024/04/06 06:01:45;;;;;;;6.72;6.13;;;13.80;99.90;;;;;;12593417;28;20069;-34
2024/04/06 06:07:46;;;;;;;9.52;8.70;;;13.80;99.90;;;;;;12592906;28;20431;-34
2024/04/06 06:13:47;;;;;;;10.52;9.80;;;14.10;99.90;;;;;;12599296;28;20044;-35
2024/04/06 06:19:48;;;;;;;11.50;10.73;;;14.30;99.90;;;;;;12604499;28;20131;-34
2024/04/06 06:25:49;;;;;;;9.45;8.85;;;14.60;99.90;;;;;;12590148;28;20051;-34
2024/04/06 06:31:49;;;;;;;9.63;9.02;;;14.70;99.90;;;;;;12591903;28;20485;-35
2024/04/06 06:37:50;;;;;;;9.35;8.73;;;15.00;99.90;;;;;;12613332;28;20436;-34
2024/04/06 06:43:51;;;;;;;10.35;9.65;;;15.20;99.90;;;;;;12629644;28;20044;-35
2024/04/06 06:49:52;;;;;;;13.38;12.48;;;15.40;99.90;;;;;;12628154;28;20496;-34
2024/04/06 06:55:53;;;;;;;16.60;15.63;;;15.50;99.90;;;;;;12620326;28;20501;-34
2024/04/06 07:01:54;;;;;;;12.70;11.80;;;15.60;99.90;;;;;;12626666;28;20077;-35
2024/04/06 07:07:56;;;;;;;14.80;13.80;;;15.60;99.90;;;;;;12624695;28;20080;-35
2024/04/06 07:13:57;;;;;;;16.00;15.15;;;15.90;99.90;;;;;;12614474;28;20097;-34
2024/04/06 07:19:58;;;;;;;12.90;12.20;;;16.10;99.90;;;;;;12602334;28;20067;-35
2024/04/06 07:25:59;;;;;;;14.57;13.57;;;16.10;99.90;;;;;;12614945;28;20056;-35
2024/04/06 07:32:01;;;;;;;14.35;13.45;;;16.30;99.90;;;;;;12563887;28;20049;-35
2024/04/06 07:38:02;;;;;;;13.45;12.68;;;16.50;99.90;;;;;;12604463;28;20397;-34
2024/04/06 07:44:03;;;;;;;10.85;10.23;;;16.80;99.90;;;;;;12604692;28;20048;-34
2024/04/06 07:50:04;;;;;;;13.02;12.23;;;17.20;99.90;;;;;;12600424;28;20077;-34
2024/04/06 07:56:05;;;;;;;13.70;12.77;;;17.60;99.90;;;;;;12600007;28;20056;-34
2024/04/06 08:02:06;;;;;;;14.55;13.75;;;17.20;99.90;;;;;;12595595;28;20052;-34
2024/04/06 08:08:08;;;;;;;11.00;10.30;;;17.30;99.90;;;;;;12592673;28;20052;-34
2024/04/06 08:14:09;;;;;;;11.70;10.77;;;17.50;99.90;;;;;;12606483;28;20052;-34
2024/04/06 08:20:10;;;;;;;11.23;10.38;;;17.70;99.90;;;;;;12604461;28;20417;-34
2024/04/06 08:26:11;;;;;;;10.52;9.90;;;17.70;99.90;;;;;;12596599;28;20048;-34
2024/04/06 08:32:12;;;;;;;11.48;10.68;;;18.00;99.90;;;;;;12573931;28;20105;-34
2024/04/06 08:38:13;;;;;;;12.52;11.55;;;17.90;99.90;;;;;;12607867;28;20522;-35
2024/04/06 08:44:17;;;;;;;9.43;8.73;;;17.90;99.90;;;;;;12601458;28;20131;-34
2024/04/06 08:50:18;;;;;;;11.00;10.20;;;18.10;99.90;;;;;;12608583;28;20075;-34
2024/04/06 08:56:19;;;;;;;10.20;9.40;;;18.20;99.90;;;;;;12617539;28;20467;-35
2024/04/06 09:02:20;;;;;;;9.93;9.23;;;18.60;99.90;;;;;;12615795;28;20044;-34
2024/04/06 09:08:21;;;;;;;10.00;9.30;;;18.70;99.90;;;;;;12604414;28;20522;-34
2024/04/06 09:14:22;;;;;;;10.55;9.75;;;18.70;99.90;;;;;;12611049;28;20044;-34
2024/04/06 09:20:23;;;;;;;12.00;10.85;;;18.60;99.90;;;;;;12617148;28;20092;-36
2024/04/06 09:26:24;;;;;;;10.80;10.10;;;18.60;99.90;;;;;;12615668;28;20053;-34
2024/04/06 09:32:29;;;;;;;11.05;10.25;;;18.70;99.90;;;;;;12569124;28;20495;-34
2024/04/06 09:38:30;;;;;;;9.80;8.90;;;18.60;99.90;;;;;;12586599;28;20047;-34
2024/04/06 09:44:32;;;;;;;11.38;10.43;;;19.10;99.90;;;;;;12600698;28;20079;-34
2024/04/06 09:50:36;;;;;;;8.80;8.13;;;19.30;99.90;;;;;;12569874;28;20531;-34
2024/04/06 09:56:37;;;;;;;9.43;8.73;;;20.00;99.90;;;;;;12577545;28;20500;-35
2024/04/06 10:02:39;;;;;;;10.73;9.98;;;20.40;99.90;;;;;;12603285;28;20493;-35
2024/04/06 10:09:00;;;;;;;9.95;9.35;;;20.40;99.90;;;;;;12603897;28;20496;-34
2024/04/06 10:15:05;;;;;;;12.15;11.25;;;20.80;99.90;;;;;;12616347;28;20051;-35
2024/04/06 10:21:10;;;;;;;9.60;9.00;;;20.30;99.90;;;;;;12600266;28;20048;-35
2024/04/06 10:27:14;;;;;;;8.75;8.05;;;20.60;99.90;;;;;;12602232;28;20067;-35
2024/04/06 10:33:16;;;;;;;10.20;9.45;;;;;;;;;;12589139;28;20052;-34
2024/04/06 10:39:17;;;;;;;12.52;11.50;;;;;;;;;;12618860;28;20390;-36
2024/04/06 10:45:18;;;;;;;12.40;11.50;;;;;;;;;;12619675;28;20048;-36
2024/04/06 10:51:20;;;;;;;10.25;9.50;;;;;;;;;;12625369;28;20289;-35
2024/04/06 10:57:22;;;;;;;10.82;10.10;;;;;;;;;;12623984;28;20063;-35
2024/04/06 11:03:23;;;;;;;9.10;8.32;;;21.00;99.90;;;;;;12631127;28;20523;-35
2024/04/06 11:09:24;;;;;;;9.00;8.35;;;21.70;99.90;;;;;;12605934;28;20135;-36
2024/04/06 11:15:28;;;;;;;8.35;7.65;;;22.10;99.90;;;;;;12625445;28;20052;-35
2024/04/06 11:21:29;;;;;;;5.45;4.95;;;22.80;99.90;;;;;;12600746;28;20051;-35
2024/04/06 11:27:30;;;;;;;5.05;4.65;;;23.00;99.90;;;;;;12599106;28;20055;-35
2024/04/06 11:33:31;;;;;;;5.80;5.30;;;23.00;99.90;;;;;;12601388;28;20481;-35
2024/04/06 11:39:32;;;;;;;6.20;5.55;;;23.20;99.90;;;;;;12617408;28;20416;-35
2024/04/06 11:45:33;;;;;;;5.90;5.00;;;23.30;99.90;;;;;;12627796;28;20055;-35
2024/04/06 11:51:34;;;;;;;4.80;4.40;;;23.50;99.90;;;;;;12622694;28;20056;-35
2024/04/06 11:57:35;;;;;;;4.85;4.22;;;23.40;99.90;;;;;;12620809;28;20542;-35
2024/04/06 12:03:36;;;;;;;5.38;4.05;;;23.60;99.90;;;;;;12610652;28;20044;-35
2024/04/06 12:09:37;;;;;;;4.30;3.88;;;23.30;99.90;;;;;;12624568;28;20048;-35
2024/04/06 12:15:40;;;;;;;5.80;5.30;;;23.20;99.90;;;;;;12610167;28;20055;-35
2024/04/06 12:21:41;;;;;;;4.57;4.18;;;23.30;99.90;;;;;;12625735;28;20061;-36
2024/04/06 12:27:43;;;;;;;5.60;5.10;;;23.00;99.90;;;;;;12589067;28;21191;-34
2024/04/06 12:33:44;;;;;;;6.55;5.82;;;22.70;99.90;;;;;;12607411;28;20060;-35
2024/04/06 12:39:45;;;;;;;9.93;5.72;;;22.60;99.90;;;;;;12609109;28;20503;-36
2024/04/06 12:45:46;;;;;;;6.32;5.70;;;22.60;99.90;;;;;;12624684;28;20036;-35
2024/04/06 12:51:47;;;;;;;6.15;4.15;;;22.70;99.90;;;;;;12613106;28;20054;-35
2024/04/06 12:57:49;;;;;;;6.15;3.85;;;23.10;99.90;;;;;;12617555;28;20048;-35
2024/04/06 13:03:50;;;;;;;4.60;4.20;;;23.20;99.90;;;;;;12607495;28;20044;-35
2024/04/06 13:09:54;;;;;;;5.72;4.65;;;23.40;99.90;;;;;;12608729;28;20084;-35
2024/04/06 13:15:56;;;;;;;4.85;3.30;;;23.70;99.90;;;;;;12595235;28;20055;-35
2024/04/06 13:21:56;;;;;;;5.03;2.17;;;24.10;99.90;;;;;;12618864;28;20105;-35
2024/04/06 13:27:57;;;;;;;3.97;1.92;;;24.30;99.90;;;;;;12589146;28;20102;-35
2024/04/06 13:33:58;;;;;;;5.22;2.30;;;24.10;99.90;;;;;;12594576;28;20059;-35
2024/04/06 13:40:00;;;;;;;3.40;1.95;;;23.80;99.90;;;;;;12605673;28;20645;-37
2024/04/06 13:46:02;;;;;;;3.83;2.03;;;23.80;99.90;;;;;;12618760;28;20048;-35
2024/04/06 13:52:05;;;;;;;3.65;1.42;;;23.90;99.90;;;;;;12625978;28;20067;-35
2024/04/06 13:58:06;;;;;;;;;;;23.90;99.90;;;;;;12613995;28;20108;-35
2024/04/06 14:04:07;;;;;;;4.32;1.65;;;23.90;99.90;;;;;;12612465;28;19920;-35
2024/04/06 14:10:08;;;;;;;2.30;1.17;;;24.20;99.90;;;;;;12602814;28;20488;-35
2024/04/06 14:16:10;;;;;;;4.32;1.38;;;24.00;99.90;;;;;;12616759;28;20519;-36
2024/04/06 14:22:11;;;;;;;3.10;1.02;;;24.10;99.90;;;;;;12609056;28;20051;-35
2024/04/06 14:28:12;;;;;;;2.53;0.80;;;24.00;99.90;;;;;;12584652;28;20572;-35
2024/04/06 14:34:13;;;;;;;4.70;1.15;;;24.10;99.90;;;;;;12597665;28;20143;-35
2024/04/06 14:40:14;;;;;;;1.70;0.95;;;24.10;99.90;;;;;;12613888;28;20048;-35
2024/04/06 14:46:15;;;;;;;2.92;1.10;;;24.10;99.90;;;;;;12609044;28;20071;-35
2024/04/06 14:52:15;;;;;;;1.85;0.80;;;24.00;99.90;;;;;;12618460;28;20101;-35
2024/04/06 14:58:16;;;;;;;3.25;1.05;;;23.90;99.90;;;;;;12618166;28;20150;-35
2024/04/06 15:04:17;;;;;;;2.15;1.05;;;23.90;99.90;;;;;;12613403;28;20190;-35
2024/04/06 15:10:19;;;;;;;3.50;0.90;;;23.80;99.90;;;;;;12605297;28;20056;-35
2024/04/06 15:16:21;;;;;;;3.25;1.10;;;23.80;99.90;;;;;;12608829;28;20044;-35
2024/04/06 15:22:22;;;;;;;2.90;0.90;;;23.70;99.90;;;;;;12608235;28;20056;-35
2024/04/06 15:28:23;;;;;;;3.78;0.90;;;23.90;99.90;;;;;;12592793;28;20060;-35
2024/04/06 15:34:24;;;;;;;1.67;0.90;;;24.10;99.90;;;;;;12622497;28;20142;-35
2024/04/06 15:40:25;;;;;;;4.88;1.85;;;24.10;99.90;;;;;;12623031;28;20131;-35
2024/04/06 15:46:26;;;;;;;6.10;1.13;;;23.90;99.90;;;;;;12608588;28;20052;-35
2024/04/06 15:52:27;;;;;;;2.47;0.88;;;23.80;99.90;;;;;;12623252;28;20142;-35
2024/04/06 15:58:28;;;;;;;2.22;0.82;;;23.70;99.90;;;;;;12614460;28;20044;-35
2024/04/06 16:04:29;;;;;;;1.70;1.00;;;23.50;99.90;;;;;;12599829;28;20055;-34
2024/04/06 16:10:30;;;;;;;2.30;1.00;;;23.40;99.90;;;;;;12611869;28;20060;-35
2024/04/06 16:16:31;;;;;;;3.47;0.88;;;23.20;99.90;;;;;;12620025;28;20440;-35
2024/04/06 16:22:32;;;;;;;3.42;1.08;;;23.10;99.90;;;;;;12611226;28;20143;-35
2024/04/06 16:28:34;;;;;;;2.58;1.10;;;23.10;99.90;;;;;;12593805;28;20052;-34
2024/04/06 16:34:35;;;;;;;1.80;0.90;;;23.00;99.90;;;;;;12617001;28;20056;-35
2024/04/06 16:40:36;;;;;;;3.58;0.82;;;23.00;99.90;;;;;;12618371;28;20049;-35
2024/04/06 16:46:37;;;;;;;2.53;0.90;;;22.80;99.90;;;;;;12612179;28;20400;-35
2024/04/06 16:52:39;;;;;;;3.10;0.90;;;22.60;99.90;;;;;;12612048;28;20054;-35
2024/04/06 16:58:40;;;;;;;2.92;1.00;;;22.50;99.90;;;;;;12623592;28;20044;-35
2024/04/06 17:04:41;;;;;;;3.55;0.90;;;22.40;99.90;;;;;;12620100;28;20381;-35
2024/04/06 17:10:43;;;;;;;2.67;0.90;;;22.20;99.90;;;;;;12605051;28;20105;-35
2024/04/06 17:16:44;;;;;;;3.23;0.90;;;22.20;99.90;;;;;;12623800;28;20056;-35
2024/04/06 17:22:45;;;;;;;2.15;0.80;;;22.00;99.90;;;;;;12608657;28;20048;-35
2024/04/06 17:28:46;;;;;;;2.25;0.98;;;21.90;99.90;;;;;;12594707;28;20071;-35
2024/04/06 17:34:47;;;;;;;2.85;0.80;;;21.70;99.90;;;;;;12602818;28;20086;-35
2024/04/06 17:40:48;;;;;;;2.03;0.98;;;21.60;99.90;;;;;;12611592;28;20739;-35
2024/04/06 17:46:52;;;;;;;5.53;0.95;;;21.40;99.90;;;;;;12621870;28;20052;-35
2024/04/06 17:52:53;;;;;;;4.25;0.88;;;21.20;99.90;;;;;;12611365;28;20060;-35
2024/04/06 17:58:54;;;;;;;2.08;1.00;;;21.10;99.90;;;;;;12602339;28;20053;-35
2024/04/06 18:04:55;;;;;;;3.38;1.10;;;21.10;99.90;;;;;;12608215;28;20047;-35
2024/04/06 18:10:57;;;;;;;2.85;0.90;;;20.90;99.90;;;;;;12615229;28;20044;-34
2024/04/06 18:16:58;;;;;;;1.80;0.93;;;20.80;99.90;;;;;;12625249;28;20169;-35
2024/04/06 18:22:59;;;;;;;1.98;0.93;;;20.60;99.90;;;;;;12602546;28;20131;-35
2024/04/06 18:28:59;;;;;;;4.30;1.10;;;20.60;99.90;;;;;;12586751;28;20060;-35
2024/04/06 18:35:00;;;;;;;2.30;1.00;;;20.50;99.90;;;;;;12624076;28;20461;-35
2024/04/06 18:41:01;;;;;;;3.28;1.10;;;20.50;99.90;;;;;;12625297;28;20047;-34
2024/04/06 18:47:02;;;;;;;3.97;1.00;;;20.30;99.90;;;;;;12618321;28;20048;-35
2024/04/06 18:53:03;;;;;;;2.13;1.00;;;20.30;99.90;;;;;;12614817;28;20056;-35
2024/04/06 18:59:04;;;;;;;3.35;1.17;;;20.40;99.90;;;;;;12620936;28;20048;-35
2024/04/06 19:05:05;;;;;;;3.75;1.15;;;20.30;99.90;;;;;;12617892;28;20488;-35
2024/04/06 19:11:06;;;;;;;2.17;1.10;;;20.20;99.90;;;;;;12608781;28;20059;-35
2024/04/06 19:17:07;;;;;;;4.82;1.35;;;20.20;99.90;;;;;;12622601;28;20063;-35
2024/04/06 19:23:08;;;;;;;3.10;1.30;;;20.10;99.90;;;;;;12614737;28;20101;-35
2024/04/06 19:29:09;;;;;;;4.47;0.90;;;20.00;99.90;;;;;;12606728;28;20121;-35
2024/04/06 19:35:12;;;;;;;3.58;1.30;;;20.00;99.90;;;;;;12593991;28;20120;-35
2024/04/06 19:41:13;;;;;;;2.40;0.93;;;19.90;99.90;;;;;;12614667;28;20055;-35
2024/04/06 19:47:17;;;;;;;4.20;0.98;;;19.80;99.90;;;;;;12616956;28;20047;-34
2024/04/06 19:53:18;;;;;;;4.57;1.30;;;19.80;99.90;;;;;;12617667;28;20048;-35
2024/04/06 19:59:19;;;;;;;2.50;1.08;;;19.60;99.90;;;;;;12608952;28;20568;-35
2024/04/06 20:05:20;;;;;;;2.72;1.00;;;19.50;99.90;;;;;;12623473;28;20506;-35
2024/04/06 20:11:21;;;;;;;3.70;1.15;;;19.50;99.90;;;;;;12612385;28;20523;-35
2024/04/06 20:17:23;;;;;;;2.03;1.00;;;19.50;99.90;;;;;;12603893;28;20072;-34
2024/04/06 20:29:43;;;;;;;2.75;1.00;;;19.30;99.90;;;;;;12570063;28;20567;-35
2024/04/06 20:35:44;;;;;;;2.20;1.10;;;19.40;99.90;;;;;;12611862;28;20056;-35
2024/04/06 20:41:45;;;;;;;5.00;1.00;;;19.30;99.90;;;;;;12614886;28;20049;-35
2024/04/06 20:47:47;;;;;;;3.30;1.10;;;19.30;99.90;;;;;;12611153;28;20159;-35
2024/04/06 20:53:47;;;;;;;4.00;1.00;;;19.30;99.90;;;;;;12613155;28;20044;-35
2024/04/06 20:59:48;;;;;;;4.43;1.17;;;19.20;99.90;;;;;;12617113;28;20127;-34
2024/04/06 21:05:49;;;;;;;2.65;1.15;;;19.20;99.90;;;;;;12612401;28;20048;-35
2024/04/06 21:11:50;;;;;;;2.55;1.20;;;19.20;99.90;;;;;;12615365;28;20143;-35
2024/04/06 21:17:51;;;;;;;3.22;1.20;;;19.20;99.90;;;;;;12609570;28;20047;-34
2024/04/06 21:23:52;;;;;;;4.97;1.10;;;19.20;99.90;;;;;;12608505;28;20082;-34
2024/04/06 21:29:53;;;;;;;5.43;1.08;;;19.20;99.90;;;;;;12592401;28;20056;-34
2024/04/06 21:35:53;;;;;;;3.67;1.13;;;19.30;99.90;;;;;;12612075;28;20064;-34
2024/04/06 21:41:54;;;;;;;3.70;1.10;;;19.30;99.90;;;;;;12625683;28;20052;-34
2024/04/06 21:47:55;;;;;;;3.80;1.20;;;19.20;99.90;;;;;;12603821;28;20503;-34
2024/04/06 21:53:56;;;;;;;4.55;1.20;;;19.20;99.90;;;;;;12618000;28;20540;-34
2024/04/06 21:59:57;;;;;;;4.32;1.90;;;19.10;99.90;;;;;;12611569;28;20950;-35
2024/04/06 22:05:58;;;;;;;2.80;1.10;;;19.00;99.90;;;;;;12614620;28;20047;-34
2024/04/06 22:12:00;;;;;;;3.17;1.60;;;19.10;99.90;;;;;;12616774;28;20052;-34
2024/04/06 22:18:02;;;;;;;2.55;1.20;;;19.10;99.90;;;;;;12627900;28;20052;-34
2024/04/06 22:24:03;;;;;;;2.78;0.82;;;19.10;99.90;;;;;;12625508;28;20060;-34
2024/04/06 22:30:05;;;;;;;4.00;1.15;;;19.10;99.90;;;;;;12593637;28;20067;-35
2024/04/06 22:36:06;;;;;;;3.75;1.38;;;19.10;99.90;;;;;;12618063;28;20048;-34
2024/04/06 22:42:07;;;;;;;2.33;0.93;;;18.90;99.90;;;;;;12629679;28;20044;-34
2024/04/06 22:48:08;;;;;;;2.58;1.02;;;18.90;99.90;;;;;;12615956;28;20048;-34
2024/04/06 22:54:10;;;;;;;7.35;1.10;;;18.80;99.90;;;;;;12610490;28;20059;-34
2024/04/06 23:00:11;;;;;;;3.75;1.00;;;18.70;99.90;;;;;;12605953;28;20059;-34
2024/04/06 23:06:13;;;;;;;3.30;1.10;;;18.70;99.90;;;;;;12619324;28;20297;-34
2024/04/06 23:12:14;;;;;;;2.80;0.90;;;18.50;99.90;;;;;;12621654;28;20079;-34
2024/04/06 23:18:14;;;;;;;1.95;1.00;;;18.50;99.90;;;;;;12621235;28;20420;-34
2024/04/06 23:24:16;;;;;;;5.28;1.15;;;18.50;99.90;;;;;;12608504;28;20332;-34
2024/04/06 23:30:16;;;;;;;6.72;1.10;;;18.60;99.90;;;;;;12592439;28;20045;-34
2024/04/06 23:36:17;;;;;;;2.53;1.00;;;18.70;99.90;;;;;;12615643;28;20053;-34
2024/04/06 23:42:18;;;;;;;3.25;0.85;;;18.70;99.90;;;;;;12617471;28;20065;-34
2024/04/06 23:48:19;;;;;;;4.30;1.00;;;18.70;99.90;;;;;;12599316;28;20060;-34
2024/04/06 23:54:20;;;;;;;4.50;1.25;;;18.60;99.90;;;;;;12605596;28;20438;-34
